sensor_id;sensor_type;location;lat;lon;timestamp;P1;durP1;ratioP1;P2;durP2;ratioP2
11131;SDS011;5620;53.570;9.718;2023-02-16T00:01:57;20.95;;;11.15;;
11131;SDS011;5620;53.570;9.718;2023-02-16T00:04:25;24.53;;;11.47;;
11131;SDS011;5620;53.570;9.718;2023-02-16T00:06:53;20.98;;;10.30;;
11131;SDS011;5620;53.570;9.718;2023-02-16T00:09:24;17.92;;;11.00;;
11131;SDS011;5620;53.570;9.718;2023-02-16T00:11:50;19.00;;;10.40;;
11131;SDS011;5620;53.570;9.718;2023-02-16T00:14:20;21.83;;;11.73;;
11131;SDS011;5620;53.570;9.718;2023-02-16T00:16:57;18.67;;;11.45;;
11131;SDS011;5620;53.570;9.718;2023-02-16T00:19:27;16.65;;;9.85;;
11131;SDS011;5620;53.570;9.718;2023-02-16T00:22:12;16.98;;;11.88;;
11131;SDS011;5620;53.570;9.718;2023-02-16T00:24:39;22.73;;;12.13;;
11131;SDS011;5620;53.570;9.718;2023-02-16T00:27:12;18.35;;;11.05;;
11131;SDS011;5620;53.570;9.718;2023-02-16T00:29:39;19.75;;;11.80;;
11131;SDS011;5620;53.570;9.718;2023-02-16T00:32:09;16.27;;;9.77;;
11131;SDS011;5620;53.570;9.718;2023-02-16T00:34:42;22.13;;;11.52;;
11131;SDS011;5620;53.570;9.718;2023-02-16T00:37:10;17.10;;;10.70;;
11131;SDS011;5620;53.570;9.718;2023-02-16T00:39:40;22.02;;;11.52;;
11131;SDS011;5620;53.570;9.718;2023-02-16T00:42:20;25.38;;;12.50;;
11131;SDS011;5620;53.570;9.718;2023-02-16T00:44:51;15.67;;;10.87;;
11131;SDS011;5620;53.570;9.718;2023-02-16T00:47:29;20.95;;;11.02;;
11131;SDS011;5620;53.570;9.718;2023-02-16T00:53:00;15.65;;;11.20;;
11131;SDS011;5620;53.570;9.718;2023-02-16T00:55:31;22.63;;;12.43;;
11131;SDS011;5620;53.570;9.718;2023-02-16T01:00:59;18.08;;;10.52;;
11131;SDS011;5620;53.570;9.718;2023-02-16T01:03:33;21.73;;;11.70;;
11131;SDS011;5620;53.570;9.718;2023-02-16T01:06:00;22.70;;;11.75;;
11131;SDS011;5620;53.570;9.718;2023-02-16T01:08:30;15.55;;;10.23;;
11131;SDS011;5620;53.570;9.718;2023-02-16T01:10:56;17.43;;;11.53;;
11131;SDS011;5620;53.570;9.718;2023-02-16T01:13:25;21.00;;;10.40;;
11131;SDS011;5620;53.570;9.718;2023-02-16T01:15:54;19.05;;;11.63;;
11131;SDS011;5620;53.570;9.718;2023-02-16T01:18:22;24.10;;;11.50;;
11131;SDS011;5620;53.570;9.718;2023-02-16T01:20:48;20.90;;;11.80;;
11131;SDS011;5620;53.570;9.718;2023-02-16T01:23:15;25.58;;;11.45;;
11131;SDS011;5620;53.570;9.718;2023-02-16T01:25:42;19.00;;;10.23;;
11131;SDS011;5620;53.570;9.718;2023-02-16T01:28:20;19.30;;;10.30;;
11131;SDS011;5620;53.570;9.718;2023-02-16T01:30:47;17.42;;;10.70;;
11131;SDS011;5620;53.570;9.718;2023-02-16T01:33:17;18.92;;;10.90;;
11131;SDS011;5620;53.570;9.718;2023-02-16T01:35:46;20.77;;;12.35;;
11131;SDS011;5620;53.570;9.718;2023-02-16T01:38:21;21.07;;;10.40;;
11131;SDS011;5620;53.570;9.718;2023-02-16T01:40:52;17.83;;;10.82;;
11131;SDS011;5620;53.570;9.718;2023-02-16T01:43:45;19.50;;;11.55;;
11131;SDS011;5620;53.570;9.718;2023-02-16T01:49:18;21.40;;;11.57;;
11131;SDS011;5620;53.570;9.718;2023-02-16T01:57:55;53.05;;;23.52;;
11131;SDS011;5620;53.570;9.718;2023-02-16T02:01:05;18.45;;;11.50;;
11131;SDS011;5620;53.570;9.718;2023-02-16T02:03:17;23.95;;;11.98;;
11131;SDS011;5620;53.570;9.718;2023-02-16T02:05:47;18.90;;;10.50;;
11131;SDS011;5620;53.570;9.718;2023-02-16T02:11:25;16.45;;;10.32;;
11131;SDS011;5620;53.570;9.718;2023-02-16T02:14:17;23.30;;;10.90;;
11131;SDS011;5620;53.570;9.718;2023-02-16T02:16:56;17.25;;;11.27;;
11131;SDS011;5620;53.570;9.718;2023-02-16T02:19:25;22.70;;;11.93;;
11131;SDS011;5620;53.570;9.718;2023-02-16T02:22:16;16.92;;;10.70;;
11131;SDS011;5620;53.570;9.718;2023-02-16T02:34:41;23.00;;;10.17;;
11131;SDS011;5620;53.570;9.718;2023-02-16T02:48:50;23.07;;;11.37;;
11131;SDS011;5620;53.570;9.718;2023-02-16T02:51:17;29.95;;;11.85;;
11131;SDS011;5620;53.570;9.718;2023-02-16T02:53:45;23.35;;;11.80;;
11131;SDS011;5620;53.570;9.718;2023-02-16T02:56:20;20.45;;;11.55;;
11131;SDS011;5620;53.570;9.718;2023-02-16T02:58:46;24.98;;;12.63;;
11131;SDS011;5620;53.570;9.718;2023-02-16T03:01:16;20.57;;;10.90;;
11131;SDS011;5620;53.570;9.718;2023-02-16T03:03:49;20.92;;;11.57;;
11131;SDS011;5620;53.570;9.718;2023-02-16T03:06:18;23.52;;;11.40;;
11131;SDS011;5620;53.570;9.718;2023-02-16T03:08:59;19.88;;;12.10;;
11131;SDS011;5620;53.570;9.718;2023-02-16T03:11:30;25.95;;;12.10;;
11131;SDS011;5620;53.570;9.718;2023-02-16T03:14:40;27.50;;;12.80;;
11131;SDS011;5620;53.570;9.718;2023-02-16T03:17:07;22.20;;;10.55;;
11131;SDS011;5620;53.570;9.718;2023-02-16T03:19:42;18.25;;;11.45;;
11131;SDS011;5620;53.570;9.718;2023-02-16T03:22:10;24.98;;;11.77;;
11131;SDS011;5620;53.570;9.718;2023-02-16T03:24:38;23.48;;;12.15;;
11131;SDS011;5620;53.570;9.718;2023-02-16T03:27:15;20.02;;;11.38;;
11131;SDS011;5620;53.570;9.718;2023-02-16T03:29:49;22.60;;;11.52;;
11131;SDS011;5620;53.570;9.718;2023-02-16T03:32:16;26.60;;;14.82;;
11131;SDS011;5620;53.570;9.718;2023-02-16T03:34:42;25.52;;;11.50;;
11131;SDS011;5620;53.570;9.718;2023-02-16T03:37:08;21.63;;;12.73;;
11131;SDS011;5620;53.570;9.718;2023-02-16T03:39:37;15.82;;;11.45;;
11131;SDS011;5620;53.570;9.718;2023-02-16T03:42:06;18.90;;;11.75;;
11131;SDS011;5620;53.570;9.718;2023-02-16T03:44:31;29.57;;;13.07;;
11131;SDS011;5620;53.570;9.718;2023-02-16T03:47:00;25.10;;;13.50;;
11131;SDS011;5620;53.570;9.718;2023-02-16T03:49:25;23.50;;;12.52;;
11131;SDS011;5620;53.570;9.718;2023-02-16T03:51:51;19.83;;;11.20;;
11131;SDS011;5620;53.570;9.718;2023-02-16T03:54:20;26.17;;;12.40;;
11131;SDS011;5620;53.570;9.718;2023-02-16T03:56:45;23.13;;;12.47;;
11131;SDS011;5620;53.570;9.718;2023-02-16T03:59:15;23.38;;;11.60;;
11131;SDS011;5620;53.570;9.718;2023-02-16T04:01:40;25.35;;;12.88;;
11131;SDS011;5620;53.570;9.718;2023-02-16T04:04:07;20.27;;;10.93;;
11131;SDS011;5620;53.570;9.718;2023-02-16T04:06:35;20.58;;;11.52;;
11131;SDS011;5620;53.570;9.718;2023-02-16T04:09:01;22.20;;;13.95;;
11131;SDS011;5620;53.570;9.718;2023-02-16T04:11:27;20.87;;;11.33;;
11131;SDS011;5620;53.570;9.718;2023-02-16T04:13:53;21.35;;;12.10;;
11131;SDS011;5620;53.570;9.718;2023-02-16T04:16:21;20.05;;;12.35;;
11131;SDS011;5620;53.570;9.718;2023-02-16T04:18:48;24.00;;;12.48;;
11131;SDS011;5620;53.570;9.718;2023-02-16T04:21:13;20.00;;;12.17;;
11131;SDS011;5620;53.570;9.718;2023-02-16T04:23:42;23.55;;;11.93;;
11131;SDS011;5620;53.570;9.718;2023-02-16T04:26:09;23.52;;;13.32;;
11131;SDS011;5620;53.570;9.718;2023-02-16T04:28:35;26.03;;;12.20;;
11131;SDS011;5620;53.570;9.718;2023-02-16T04:31:02;26.00;;;12.25;;
11131;SDS011;5620;53.570;9.718;2023-02-16T04:33:29;24.90;;;12.18;;
11131;SDS011;5620;53.570;9.718;2023-02-16T04:35:55;18.75;;;11.48;;
11131;SDS011;5620;53.570;9.718;2023-02-16T04:38:20;19.77;;;12.83;;
11131;SDS011;5620;53.570;9.718;2023-02-16T04:40:47;21.10;;;11.73;;
11131;SDS011;5620;53.570;9.718;2023-02-16T04:43:14;21.60;;;11.23;;
11131;SDS011;5620;53.570;9.718;2023-02-16T04:45:42;21.52;;;11.95;;
11131;SDS011;5620;53.570;9.718;2023-02-16T04:48:09;23.95;;;12.10;;
11131;SDS011;5620;53.570;9.718;2023-02-16T04:50:37;23.75;;;12.88;;
11131;SDS011;5620;53.570;9.718;2023-02-16T04:53:04;20.37;;;10.80;;
11131;SDS011;5620;53.570;9.718;2023-02-16T04:55:31;16.10;;;10.80;;
11131;SDS011;5620;53.570;9.718;2023-02-16T04:57:57;22.05;;;13.13;;
11131;SDS011;5620;53.570;9.718;2023-02-16T05:00:23;17.47;;;11.43;;
11131;SDS011;5620;53.570;9.718;2023-02-16T05:02:50;24.70;;;12.88;;
11131;SDS011;5620;53.570;9.718;2023-02-16T05:05:15;24.60;;;13.25;;
11131;SDS011;5620;53.570;9.718;2023-02-16T05:07:42;18.00;;;11.13;;
11131;SDS011;5620;53.570;9.718;2023-02-16T05:10:09;22.98;;;11.52;;
11131;SDS011;5620;53.570;9.718;2023-02-16T05:12:36;24.27;;;12.23;;
11131;SDS011;5620;53.570;9.718;2023-02-16T05:15:03;18.53;;;10.87;;
11131;SDS011;5620;53.570;9.718;2023-02-16T05:17:29;22.17;;;12.10;;
11131;SDS011;5620;53.570;9.718;2023-02-16T05:19:57;20.60;;;13.48;;
11131;SDS011;5620;53.570;9.718;2023-02-16T05:22:26;22.98;;;12.32;;
11131;SDS011;5620;53.570;9.718;2023-02-16T05:24:53;26.10;;;14.52;;
11131;SDS011;5620;53.570;9.718;2023-02-16T05:27:21;20.63;;;11.77;;
11131;SDS011;5620;53.570;9.718;2023-02-16T05:29:50;18.73;;;10.50;;
11131;SDS011;5620;53.570;9.718;2023-02-16T05:32:16;18.77;;;12.53;;
11131;SDS011;5620;53.570;9.718;2023-02-16T05:34:44;21.10;;;12.27;;
11131;SDS011;5620;53.570;9.718;2023-02-16T05:37:12;32.63;;;15.25;;
11131;SDS011;5620;53.570;9.718;2023-02-16T05:39:40;26.65;;;14.32;;
11131;SDS011;5620;53.570;9.718;2023-02-16T05:42:08;26.40;;;12.30;;
11131;SDS011;5620;53.570;9.718;2023-02-16T05:44:34;22.23;;;12.73;;
11131;SDS011;5620;53.570;9.718;2023-02-16T05:47:02;20.27;;;11.88;;
11131;SDS011;5620;53.570;9.718;2023-02-16T05:49:33;16.98;;;11.88;;
11131;SDS011;5620;53.570;9.718;2023-02-16T05:52:00;23.10;;;12.35;;
11131;SDS011;5620;53.570;9.718;2023-02-16T05:54:27;19.23;;;11.10;;
11131;SDS011;5620;53.570;9.718;2023-02-16T05:56:54;15.70;;;10.00;;
11131;SDS011;5620;53.570;9.718;2023-02-16T05:59:21;22.63;;;11.63;;
11131;SDS011;5620;53.570;9.718;2023-02-16T06:01:48;20.30;;;12.32;;
11131;SDS011;5620;53.570;9.718;2023-02-16T06:04:16;18.15;;;11.25;;
11131;SDS011;5620;53.570;9.718;2023-02-16T06:06:42;20.20;;;12.82;;
11131;SDS011;5620;53.570;9.718;2023-02-16T06:09:08;18.63;;;11.33;;
11131;SDS011;5620;53.570;9.718;2023-02-16T06:11:35;23.58;;;11.60;;
11131;SDS011;5620;53.570;9.718;2023-02-16T06:14:04;29.35;;;12.10;;
11131;SDS011;5620;53.570;9.718;2023-02-16T06:16:35;19.17;;;12.53;;
11131;SDS011;5620;53.570;9.718;2023-02-16T06:19:04;23.35;;;12.00;;
11131;SDS011;5620;53.570;9.718;2023-02-16T06:21:34;33.05;;;13.40;;
11131;SDS011;5620;53.570;9.718;2023-02-16T06:24:06;21.38;;;12.35;;
11131;SDS011;5620;53.570;9.718;2023-02-16T06:26:33;21.98;;;12.52;;
11131;SDS011;5620;53.570;9.718;2023-02-16T06:29:01;22.70;;;12.57;;
11131;SDS011;5620;53.570;9.718;2023-02-16T06:31:28;32.08;;;14.95;;
11131;SDS011;5620;53.570;9.718;2023-02-16T06:33:54;51.42;;;25.27;;
11131;SDS011;5620;53.570;9.718;2023-02-16T06:36:20;23.77;;;13.10;;
11131;SDS011;5620;53.570;9.718;2023-02-16T06:38:48;24.85;;;13.02;;
11131;SDS011;5620;53.570;9.718;2023-02-16T06:41:15;19.25;;;12.73;;
11131;SDS011;5620;53.570;9.718;2023-02-16T06:43:42;22.02;;;11.95;;
11131;SDS011;5620;53.570;9.718;2023-02-16T06:46:09;21.73;;;10.83;;
11131;SDS011;5620;53.570;9.718;2023-02-16T06:48:34;21.40;;;12.15;;
11131;SDS011;5620;53.570;9.718;2023-02-16T06:51:01;23.50;;;13.38;;
11131;SDS011;5620;53.570;9.718;2023-02-16T06:53:28;28.90;;;16.88;;
11131;SDS011;5620;53.570;9.718;2023-02-16T06:55:54;22.00;;;12.25;;
11131;SDS011;5620;53.570;9.718;2023-02-16T06:58:22;25.33;;;14.55;;
11131;SDS011;5620;53.570;9.718;2023-02-16T07:00:48;26.00;;;13.90;;
11131;SDS011;5620;53.570;9.718;2023-02-16T07:03:13;20.20;;;12.37;;
11131;SDS011;5620;53.570;9.718;2023-02-16T07:05:41;29.70;;;13.52;;
11131;SDS011;5620;53.570;9.718;2023-02-16T07:08:08;26.95;;;13.35;;
11131;SDS011;5620;53.570;9.718;2023-02-16T07:10:36;25.93;;;14.07;;
11131;SDS011;5620;53.570;9.718;2023-02-16T07:13:06;23.20;;;13.00;;
11131;SDS011;5620;53.570;9.718;2023-02-16T07:15:34;30.00;;;15.23;;
11131;SDS011;5620;53.570;9.718;2023-02-16T07:18:02;26.95;;;14.85;;
11131;SDS011;5620;53.570;9.718;2023-02-16T07:20:28;35.00;;;15.00;;
11131;SDS011;5620;53.570;9.718;2023-02-16T07:22:56;22.80;;;13.87;;
11131;SDS011;5620;53.570;9.718;2023-02-16T07:25:23;23.17;;;13.25;;
11131;SDS011;5620;53.570;9.718;2023-02-16T07:27:50;32.70;;;16.58;;
11131;SDS011;5620;53.570;9.718;2023-02-16T07:30:16;24.45;;;12.98;;
11131;SDS011;5620;53.570;9.718;2023-02-16T07:32:44;34.13;;;15.50;;
11131;SDS011;5620;53.570;9.718;2023-02-16T07:35:11;31.20;;;14.10;;
11131;SDS011;5620;53.570;9.718;2023-02-16T07:37:39;22.90;;;13.95;;
11131;SDS011;5620;53.570;9.718;2023-02-16T07:40:06;24.73;;;13.65;;
11131;SDS011;5620;53.570;9.718;2023-02-16T07:42:35;33.80;;;14.20;;
11131;SDS011;5620;53.570;9.718;2023-02-16T07:45:00;27.83;;;14.75;;
11131;SDS011;5620;53.570;9.718;2023-02-16T07:47:26;30.03;;;14.60;;
11131;SDS011;5620;53.570;9.718;2023-02-16T07:49:53;26.67;;;15.83;;
11131;SDS011;5620;53.570;9.718;2023-02-16T07:52:18;31.35;;;15.57;;
11131;SDS011;5620;53.570;9.718;2023-02-16T07:54:45;45.87;;;15.30;;
11131;SDS011;5620;53.570;9.718;2023-02-16T07:57:13;28.80;;;15.07;;
11131;SDS011;5620;53.570;9.718;2023-02-16T07:59:41;30.17;;;16.00;;
11131;SDS011;5620;53.570;9.718;2023-02-16T08:02:13;37.38;;;15.77;;
11131;SDS011;5620;53.570;9.718;2023-02-16T08:04:40;25.15;;;14.75;;
11131;SDS011;5620;53.570;9.718;2023-02-16T08:07:10;26.30;;;15.98;;
11131;SDS011;5620;53.570;9.718;2023-02-16T08:09:38;26.92;;;16.15;;
11131;SDS011;5620;53.570;9.718;2023-02-16T08:12:08;34.05;;;17.40;;
11131;SDS011;5620;53.570;9.718;2023-02-16T08:14:36;29.98;;;16.23;;
11131;SDS011;5620;53.570;9.718;2023-02-16T08:17:06;27.60;;;16.77;;
11131;SDS011;5620;53.570;9.718;2023-02-16T08:19:34;30.40;;;16.05;;
11131;SDS011;5620;53.570;9.718;2023-02-16T08:22:02;33.63;;;16.60;;
11131;SDS011;5620;53.570;9.718;2023-02-16T08:24:30;30.48;;;17.67;;
11131;SDS011;5620;53.570;9.718;2023-02-16T08:26:57;30.58;;;17.23;;
11131;SDS011;5620;53.570;9.718;2023-02-16T08:29:23;27.80;;;17.07;;
11131;SDS011;5620;53.570;9.718;2023-02-16T08:31:50;38.00;;;16.60;;
11131;SDS011;5620;53.570;9.718;2023-02-16T08:34:17;29.60;;;17.13;;
11131;SDS011;5620;53.570;9.718;2023-02-16T08:36:45;31.50;;;16.93;;
11131;SDS011;5620;53.570;9.718;2023-02-16T08:39:17;28.25;;;16.67;;
11131;SDS011;5620;53.570;9.718;2023-02-16T08:41:47;27.10;;;16.40;;
11131;SDS011;5620;53.570;9.718;2023-02-16T08:44:14;35.95;;;17.25;;
11131;SDS011;5620;53.570;9.718;2023-02-16T08:46:44;27.17;;;17.10;;
11131;SDS011;5620;53.570;9.718;2023-02-16T08:49:13;44.67;;;18.03;;
11131;SDS011;5620;53.570;9.718;2023-02-16T08:51:46;35.22;;;15.85;;
11131;SDS011;5620;53.570;9.718;2023-02-16T08:54:15;32.38;;;17.88;;
11131;SDS011;5620;53.570;9.718;2023-02-16T08:56:44;32.15;;;15.88;;
11131;SDS011;5620;53.570;9.718;2023-02-16T08:59:15;32.38;;;17.30;;
11131;SDS011;5620;53.570;9.718;2023-02-16T09:01:48;29.20;;;16.53;;
11131;SDS011;5620;53.570;9.718;2023-02-16T09:04:14;36.22;;;16.42;;
11131;SDS011;5620;53.570;9.718;2023-02-16T09:06:41;30.33;;;17.77;;
11131;SDS011;5620;53.570;9.718;2023-02-16T09:09:11;29.90;;;15.85;;
11131;SDS011;5620;53.570;9.718;2023-02-16T09:11:37;38.08;;;17.55;;
11131;SDS011;5620;53.570;9.718;2023-02-16T09:14:03;36.93;;;17.90;;
11131;SDS011;5620;53.570;9.718;2023-02-16T09:16:30;34.83;;;18.25;;
11131;SDS011;5620;53.570;9.718;2023-02-16T09:18:58;32.72;;;19.45;;
11131;SDS011;5620;53.570;9.718;2023-02-16T09:21:27;37.53;;;19.08;;
11131;SDS011;5620;53.570;9.718;2023-02-16T09:23:55;34.08;;;16.50;;
11131;SDS011;5620;53.570;9.718;2023-02-16T09:26:22;29.95;;;19.27;;
11131;SDS011;5620;53.570;9.718;2023-02-16T09:28:49;26.30;;;15.15;;
11131;SDS011;5620;53.570;9.718;2023-02-16T09:31:17;33.50;;;17.20;;
11131;SDS011;5620;53.570;9.718;2023-02-16T09:33:49;26.02;;;14.57;;
11131;SDS011;5620;53.570;9.718;2023-02-16T09:36:18;30.20;;;17.60;;
11131;SDS011;5620;53.570;9.718;2023-02-16T09:38:45;30.50;;;16.02;;
11131;SDS011;5620;53.570;9.718;2023-02-16T09:46:57;34.40;;;15.85;;
11131;SDS011;5620;53.570;9.718;2023-02-16T09:49:43;24.70;;;13.52;;
11131;SDS011;5620;53.570;9.718;2023-02-16T09:52:18;32.92;;;16.98;;
11131;SDS011;5620;53.570;9.718;2023-02-16T09:54:58;24.80;;;16.27;;
11131;SDS011;5620;53.570;9.718;2023-02-16T10:08:11;32.72;;;16.25;;
11131;SDS011;5620;53.570;9.718;2023-02-16T10:10:49;30.08;;;15.32;;
11131;SDS011;5620;53.570;9.718;2023-02-16T10:13:26;33.88;;;18.85;;
11131;SDS011;5620;53.570;9.718;2023-02-16T10:16:06;31.05;;;16.98;;
11131;SDS011;5620;53.570;9.718;2023-02-16T10:18:43;28.27;;;15.85;;
11131;SDS011;5620;53.570;9.718;2023-02-16T10:21:21;30.98;;;15.80;;
11131;SDS011;5620;53.570;9.718;2023-02-16T10:24:00;32.65;;;18.60;;
11131;SDS011;5620;53.570;9.718;2023-02-16T10:26:31;23.00;;;13.20;;
11131;SDS011;5620;53.570;9.718;2023-02-16T10:29:00;29.48;;;16.65;;
11131;SDS011;5620;53.570;9.718;2023-02-16T10:31:42;31.10;;;16.25;;
11131;SDS011;5620;53.570;9.718;2023-02-16T10:45:53;30.27;;;18.00;;
11131;SDS011;5620;53.570;9.718;2023-02-16T10:48:32;36.72;;;17.27;;
11131;SDS011;5620;53.570;9.718;2023-02-16T10:53:50;30.70;;;17.77;;
11131;SDS011;5620;53.570;9.718;2023-02-16T10:59:12;22.77;;;14.73;;
11131;SDS011;5620;53.570;9.718;2023-02-16T11:01:49;28.90;;;14.88;;
11131;SDS011;5620;53.570;9.718;2023-02-16T11:04:42;34.22;;;15.63;;
11131;SDS011;5620;53.570;9.718;2023-02-16T11:07:17;28.77;;;14.80;;
11131;SDS011;5620;53.570;9.718;2023-02-16T11:09:46;33.80;;;18.67;;
11131;SDS011;5620;53.570;9.718;2023-02-16T11:18:06;40.80;;;20.17;;
11131;SDS011;5620;53.570;9.718;2023-02-16T11:23:33;37.30;;;17.77;;
11131;SDS011;5620;53.570;9.718;2023-02-16T11:28:40;30.95;;;17.90;;
11131;SDS011;5620;53.570;9.718;2023-02-16T11:36:42;35.20;;;18.95;;
11131;SDS011;5620;53.570;9.718;2023-02-16T11:39:20;40.97;;;19.75;;
11131;SDS011;5620;53.570;9.718;2023-02-16T11:45:00;38.35;;;20.70;;
11131;SDS011;5620;53.570;9.718;2023-02-16T11:55:52;32.28;;;18.70;;
11131;SDS011;5620;53.570;9.718;2023-02-16T12:01:45;39.55;;;20.23;;
11131;SDS011;5620;53.570;9.718;2023-02-16T12:07:39;35.45;;;17.30;;
11131;SDS011;5620;53.570;9.718;2023-02-16T12:13:25;41.85;;;20.85;;
11131;SDS011;5620;53.570;9.718;2023-02-16T12:19:10;49.30;;;21.55;;
11131;SDS011;5620;53.570;9.718;2023-02-16T12:45:26;40.40;;;17.75;;
11131;SDS011;5620;53.570;9.718;2023-02-16T12:48:00;52.60;;;25.08;;
11131;SDS011;5620;53.570;9.718;2023-02-16T12:50:44;48.22;;;21.33;;
11131;SDS011;5620;53.570;9.718;2023-02-16T12:53:18;32.67;;;18.35;;
11131;SDS011;5620;53.570;9.718;2023-02-16T12:56:07;45.55;;;19.00;;
11131;SDS011;5620;53.570;9.718;2023-02-16T12:58:45;49.72;;;22.55;;
11131;SDS011;5620;53.570;9.718;2023-02-16T13:01:23;36.90;;;19.95;;
11131;SDS011;5620;53.570;9.718;2023-02-16T13:06:55;36.47;;;18.45;;
11131;SDS011;5620;53.570;9.718;2023-02-16T13:09:51;39.67;;;20.65;;
11131;SDS011;5620;53.570;9.718;2023-02-16T13:15:43;43.65;;;22.33;;
11131;SDS011;5620;53.570;9.718;2023-02-16T13:21:04;46.63;;;21.25;;
11131;SDS011;5620;53.570;9.718;2023-02-16T13:24:00;38.42;;;17.73;;
11131;SDS011;5620;53.570;9.718;2023-02-16T13:44:16;46.17;;;22.75;;
11131;SDS011;5620;53.570;9.718;2023-02-16T13:46:45;41.13;;;20.88;;
11131;SDS011;5620;53.570;9.718;2023-02-16T13:49:30;73.13;;;34.30;;
11131;SDS011;5620;53.570;9.718;2023-02-16T13:52:08;36.70;;;17.33;;
11131;SDS011;5620;53.570;9.718;2023-02-16T13:54:57;48.00;;;23.38;;
11131;SDS011;5620;53.570;9.718;2023-02-16T14:00:35;38.33;;;20.92;;
11131;SDS011;5620;53.570;9.718;2023-02-16T14:17:30;37.22;;;20.20;;
11131;SDS011;5620;53.570;9.718;2023-02-16T14:27:52;37.20;;;19.38;;
11131;SDS011;5620;53.570;9.718;2023-02-16T14:30:41;37.55;;;20.85;;
11131;SDS011;5620;53.570;9.718;2023-02-16T14:33:22;44.53;;;22.10;;
11131;SDS011;5620;53.570;9.718;2023-02-16T14:36:19;39.33;;;18.75;;
11131;SDS011;5620;53.570;9.718;2023-02-16T14:38:47;38.65;;;21.50;;
11131;SDS011;5620;53.570;9.718;2023-02-16T15:01:14;36.53;;;19.88;;
11131;SDS011;5620;53.570;9.718;2023-02-16T15:03:45;41.50;;;20.40;;
11131;SDS011;5620;53.570;9.718;2023-02-16T15:09:15;34.85;;;19.92;;
11131;SDS011;5620;53.570;9.718;2023-02-16T15:14:36;37.50;;;19.40;;
11131;SDS011;5620;53.570;9.718;2023-02-16T15:17:08;38.30;;;22.17;;
11131;SDS011;5620;53.570;9.718;2023-02-16T15:19:42;39.10;;;22.85;;
11131;SDS011;5620;53.570;9.718;2023-02-16T15:22:16;35.67;;;20.60;;
11131;SDS011;5620;53.570;9.718;2023-02-16T15:24:53;39.67;;;19.80;;
11131;SDS011;5620;53.570;9.718;2023-02-16T15:27:23;37.65;;;17.88;;
11131;SDS011;5620;53.570;9.718;2023-02-16T15:30:02;38.05;;;19.05;;
11131;SDS011;5620;53.570;9.718;2023-02-16T15:32:49;35.63;;;20.08;;
11131;SDS011;5620;53.570;9.718;2023-02-16T15:35:35;31.40;;;18.45;;
11131;SDS011;5620;53.570;9.718;2023-02-16T15:41:03;32.97;;;20.40;;
11131;SDS011;5620;53.570;9.718;2023-02-16T15:49:11;30.50;;;16.45;;
11131;SDS011;5620;53.570;9.718;2023-02-16T15:51:54;34.22;;;16.98;;
11131;SDS011;5620;53.570;9.718;2023-02-16T15:54:35;30.85;;;16.55;;
11131;SDS011;5620;53.570;9.718;2023-02-16T16:00:04;41.83;;;20.67;;
11131;SDS011;5620;53.570;9.718;2023-02-16T16:02:50;44.13;;;21.58;;
11131;SDS011;5620;53.570;9.718;2023-02-16T16:05:20;31.70;;;15.75;;
11131;SDS011;5620;53.570;9.718;2023-02-16T16:07:50;38.20;;;19.88;;
11131;SDS011;5620;53.570;9.718;2023-02-16T16:13:17;34.83;;;20.00;;
11131;SDS011;5620;53.570;9.718;2023-02-16T16:15:52;40.13;;;20.42;;
11131;SDS011;5620;53.570;9.718;2023-02-16T16:24:32;37.47;;;21.20;;
11131;SDS011;5620;53.570;9.718;2023-02-16T16:27:04;32.92;;;19.25;;
11131;SDS011;5620;53.570;9.718;2023-02-16T16:29:38;30.92;;;18.27;;
11131;SDS011;5620;53.570;9.718;2023-02-16T16:32:22;43.45;;;20.38;;
11131;SDS011;5620;53.570;9.718;2023-02-16T16:34:52;33.75;;;20.70;;
11131;SDS011;5620;53.570;9.718;2023-02-16T16:37:26;38.20;;;19.30;;
11131;SDS011;5620;53.570;9.718;2023-02-16T16:40:10;34.67;;;18.48;;
11131;SDS011;5620;53.570;9.718;2023-02-16T16:48:36;38.65;;;19.67;;
11131;SDS011;5620;53.570;9.718;2023-02-16T16:51:20;25.17;;;15.40;;
11131;SDS011;5620;53.570;9.718;2023-02-16T16:54:33;26.33;;;14.20;;
11131;SDS011;5620;53.570;9.718;2023-02-16T16:57:06;28.15;;;18.88;;
11131;SDS011;5620;53.570;9.718;2023-02-16T16:59:52;33.78;;;18.40;;
11131;SDS011;5620;53.570;9.718;2023-02-16T17:02:19;26.63;;;16.58;;
11131;SDS011;5620;53.570;9.718;2023-02-16T17:04:47;39.47;;;21.02;;
11131;SDS011;5620;53.570;9.718;2023-02-16T17:07:15;40.47;;;21.60;;
11131;SDS011;5620;53.570;9.718;2023-02-16T17:09:42;33.45;;;20.88;;
11131;SDS011;5620;53.570;9.718;2023-02-16T17:12:10;44.97;;;23.25;;
11131;SDS011;5620;53.570;9.718;2023-02-16T17:14:38;28.30;;;16.30;;
11131;SDS011;5620;53.570;9.718;2023-02-16T17:17:05;41.90;;;23.15;;
11131;SDS011;5620;53.570;9.718;2023-02-16T17:19:30;30.75;;;18.13;;
11131;SDS011;5620;53.570;9.718;2023-02-16T17:21:58;39.67;;;20.48;;
11131;SDS011;5620;53.570;9.718;2023-02-16T17:24:25;24.00;;;13.15;;
11131;SDS011;5620;53.570;9.718;2023-02-16T17:26:53;41.03;;;21.70;;
11131;SDS011;5620;53.570;9.718;2023-02-16T17:29:21;34.30;;;20.48;;
11131;SDS011;5620;53.570;9.718;2023-02-16T17:31:51;44.28;;;23.83;;
11131;SDS011;5620;53.570;9.718;2023-02-16T17:34:21;52.60;;;28.13;;
11131;SDS011;5620;53.570;9.718;2023-02-16T17:36:48;38.80;;;20.27;;
11131;SDS011;5620;53.570;9.718;2023-02-16T17:39:17;41.80;;;22.02;;
11131;SDS011;5620;53.570;9.718;2023-02-16T17:41:46;41.85;;;23.20;;
11131;SDS011;5620;53.570;9.718;2023-02-16T17:44:12;39.63;;;20.25;;
11131;SDS011;5620;53.570;9.718;2023-02-16T17:46:41;37.33;;;20.83;;
11131;SDS011;5620;53.570;9.718;2023-02-16T17:49:09;30.70;;;17.27;;
11131;SDS011;5620;53.570;9.718;2023-02-16T17:51:36;32.95;;;19.95;;
11131;SDS011;5620;53.570;9.718;2023-02-16T17:54:05;33.08;;;19.42;;
11131;SDS011;5620;53.570;9.718;2023-02-16T17:56:31;31.85;;;17.55;;
11131;SDS011;5620;53.570;9.718;2023-02-16T17:59:03;36.65;;;21.13;;
11131;SDS011;5620;53.570;9.718;2023-02-16T18:01:30;34.42;;;19.02;;
11131;SDS011;5620;53.570;9.718;2023-02-16T18:03:59;31.08;;;15.40;;
11131;SDS011;5620;53.570;9.718;2023-02-16T18:06:25;34.17;;;17.30;;
11131;SDS011;5620;53.570;9.718;2023-02-16T18:08:53;36.10;;;18.60;;
11131;SDS011;5620;53.570;9.718;2023-02-16T18:11:19;33.93;;;18.20;;
11131;SDS011;5620;53.570;9.718;2023-02-16T18:13:48;34.88;;;19.38;;
11131;SDS011;5620;53.570;9.718;2023-02-16T18:16:15;37.38;;;18.30;;
11131;SDS011;5620;53.570;9.718;2023-02-16T18:18:43;39.28;;;18.80;;
11131;SDS011;5620;53.570;9.718;2023-02-16T18:21:09;27.35;;;16.33;;
11131;SDS011;5620;53.570;9.718;2023-02-16T18:23:36;34.03;;;17.63;;
11131;SDS011;5620;53.570;9.718;2023-02-16T18:26:03;31.90;;;16.45;;
11131;SDS011;5620;53.570;9.718;2023-02-16T18:28:32;27.70;;;16.90;;
11131;SDS011;5620;53.570;9.718;2023-02-16T18:30:59;45.15;;;21.95;;
11131;SDS011;5620;53.570;9.718;2023-02-16T18:33:30;37.20;;;18.20;;
11131;SDS011;5620;53.570;9.718;2023-02-16T18:35:56;33.17;;;17.92;;
11131;SDS011;5620;53.570;9.718;2023-02-16T18:38:24;27.65;;;16.80;;
11131;SDS011;5620;53.570;9.718;2023-02-16T18:40:54;33.20;;;17.75;;
11131;SDS011;5620;53.570;9.718;2023-02-16T18:43:21;27.70;;;17.02;;
11131;SDS011;5620;53.570;9.718;2023-02-16T18:45:49;36.83;;;18.67;;
11131;SDS011;5620;53.570;9.718;2023-02-16T18:48:17;32.70;;;16.92;;
11131;SDS011;5620;53.570;9.718;2023-02-16T18:50:45;30.08;;;15.40;;
11131;SDS011;5620;53.570;9.718;2023-02-16T18:53:11;30.73;;;16.40;;
11131;SDS011;5620;53.570;9.718;2023-02-16T18:55:37;35.28;;;18.35;;
11131;SDS011;5620;53.570;9.718;2023-02-16T18:58:05;32.25;;;17.00;;
11131;SDS011;5620;53.570;9.718;2023-02-16T19:00:33;27.25;;;15.18;;